Terminal Aerodrome Forecast
Issued by NWS Pocatello, ID

Home | Current Version | Previous Version | Text Only | Print | Product List | Glossary On
Versions: 1 2 3 4 5 6 7 8 9 10 11 12 13 14 15 16 17 18 19 20 21 22 23 24 25 26
236
FTUS45 KPIH 232034 AAA
TAFIDA
TAF AMD
KIDA 232034Z 2321/2418 02009KT 1/2SM SN FZFG OVC009
     FM232200 01008KT 5SM -SN BR SCT009 OVC020
     FM240000 26014KT 1SM -SN BR SCT005 OVC012
     FM240900 22015KT 2SM -SN BR BKN008 OVC020=

USA.gov is the U.S. government's official web portal to all federal, state and local government web resources and services.